Seaforth, Canada
Current Conditions -  °F | °C
As of 6:00 AM on Saturday 25 Oct 2014 (Local Time) from CYXU Reporting Station
Few Clouds Few Clouds  
Wind Chill: 46°   Ceiling: Unl
Heat Index: 48°   Visibility: 15mi
Dew Point: 46°   Wind: 6mph
Humidity: 93%   Direction: 240°WSW
Pressure: 29.85"   Gusts: NA
Location:  43.55°N, 81.38°W
Report Text: CYXU 251000Z 24005KT 15SM FEW035 09/08 A2985 RMK SC2 SLP111
Loading
Personal Weather Stations






























Interactive Weather Map
Tropical Storm Tracking
New forecast layout! Learn more

10-Day Weather Forecast

Advertisements
Track Severe Weather on mobile